Paducah, Kentucky
Current Conditions -  °F | °C
As of 8:53 PM on Thursday 18 Dec 2014 (Local Time) from KPAH Reporting Station
Overcast Overcast  
Wind Chill: 32°   Ceiling: 6000
Heat Index: 36°   Visibility: 8mi
Dew Point: 31°   Wind: 5mph
Humidity: 82%   Direction: 30°NNE
Pressure: 30.26"   Gusts: NA
Location:  37.09°N, 88.59°W
Report Text: KPAH 190253Z 03004KT 8SM OVC060 02/M01 A3026 RMK AO2 SLP247 T00221006 51007
Loading
Personal Weather Stations






























Interactive Weather Map New forecast layout! Learn more

10-Day Weather Forecast

Advertisements
Track Severe Weather on mobile